Redwood, New York
Current Conditions -  °F | °C
As of 6:08 AM on Monday 22 Dec 2014 (Local Time) from KGTB Reporting Station
Broken Clouds Broken Clouds  
Wind Chill: 12°   Ceiling: 1500
Heat Index: 21°   Visibility: 10mi
Dew Point: 18°   Wind: 8mph
Humidity: 86%   Direction: 120°ESE
Pressure: 30.3"   Gusts: NA
Location:  44.3°N, 75.8°W
Report Text: KGTB 221108Z AUTO 12007KT 10SM BKN015 M06/M08 A3030 RMK AO2 BKN V SCT
Loading
Personal Weather Stations






























Interactive Weather Map New forecast layout! Learn more

10-Day Weather Forecast

Advertisements
Track Severe Weather on mobile